sensor_id;sensor_type;location;lat;lon;timestamp;P1;durP1;ratioP1;P2;durP2;ratioP2
51556;SDS011;38766;53.194;5.532;2023-02-03T00:00:36;11.05;;;2.90;;
51556;SDS011;38766;53.194;5.532;2023-02-03T00:03:02;12.30;;;3.25;;
51556;SDS011;38766;53.194;5.532;2023-02-03T00:05:28;11.70;;;3.40;;
51556;SDS011;38766;53.194;5.532;2023-02-03T00:07:55;10.55;;;2.92;;
51556;SDS011;38766;53.194;5.532;2023-02-03T00:10:22;15.35;;;2.80;;
51556;SDS011;38766;53.194;5.532;2023-02-03T00:12:48;11.95;;;2.72;;
51556;SDS011;38766;53.194;5.532;2023-02-03T00:15:15;19.73;;;3.58;;
51556;SDS011;38766;53.194;5.532;2023-02-03T00:17:41;13.40;;;2.78;;
51556;SDS011;38766;53.194;5.532;2023-02-03T00:20:07;17.08;;;3.35;;
51556;SDS011;38766;53.194;5.532;2023-02-03T00:22:33;22.05;;;3.25;;
51556;SDS011;38766;53.194;5.532;2023-02-03T00:24:59;15.20;;;3.40;;
51556;SDS011;38766;53.194;5.532;2023-02-03T00:27:24;15.18;;;2.80;;
51556;SDS011;38766;53.194;5.532;2023-02-03T00:29:50;11.10;;;2.60;;
51556;SDS011;38766;53.194;5.532;2023-02-03T00:32:16;11.50;;;3.17;;
51556;SDS011;38766;53.194;5.532;2023-02-03T00:34:41;18.90;;;3.72;;
51556;SDS011;38766;53.194;5.532;2023-02-03T00:37:07;10.27;;;2.65;;
51556;SDS011;38766;53.194;5.532;2023-02-03T00:39:34;10.98;;;2.85;;
51556;SDS011;38766;53.194;5.532;2023-02-03T00:42:02;10.60;;;3.08;;
51556;SDS011;38766;53.194;5.532;2023-02-03T00:44:28;18.60;;;3.50;;
51556;SDS011;38766;53.194;5.532;2023-02-03T00:46:54;17.83;;;3.17;;
51556;SDS011;38766;53.194;5.532;2023-02-03T00:49:20;12.55;;;3.28;;
51556;SDS011;38766;53.194;5.532;2023-02-03T00:51:45;12.15;;;3.83;;
51556;SDS011;38766;53.194;5.532;2023-02-03T00:54:11;8.43;;;2.65;;
51556;SDS011;38766;53.194;5.532;2023-02-03T00:56:37;10.15;;;2.60;;
51556;SDS011;38766;53.194;5.532;2023-02-03T00:59:03;8.32;;;2.60;;
51556;SDS011;38766;53.194;5.532;2023-02-03T01:01:29;11.45;;;2.63;;
51556;SDS011;38766;53.194;5.532;2023-02-03T01:03:55;14.55;;;3.50;;
51556;SDS011;38766;53.194;5.532;2023-02-03T01:06:21;10.50;;;2.92;;
51556;SDS011;38766;53.194;5.532;2023-02-03T01:08:47;20.77;;;3.75;;
51556;SDS011;38766;53.194;5.532;2023-02-03T01:11:23;10.73;;;2.78;;
51556;SDS011;38766;53.194;5.532;2023-02-03T01:13:52;13.63;;;3.42;;
51556;SDS011;38766;53.194;5.532;2023-02-03T01:16:23;13.55;;;3.25;;
51556;SDS011;38766;53.194;5.532;2023-02-03T01:18:49;13.32;;;3.40;;
51556;SDS011;38766;53.194;5.532;2023-02-03T01:21:17;16.65;;;4.32;;
51556;SDS011;38766;53.194;5.532;2023-02-03T01:23:45;13.95;;;3.53;;
51556;SDS011;38766;53.194;5.532;2023-02-03T01:26:12;12.43;;;3.00;;
51556;SDS011;38766;53.194;5.532;2023-02-03T01:28:39;12.20;;;3.20;;
51556;SDS011;38766;53.194;5.532;2023-02-03T01:31:13;20.67;;;3.65;;
51556;SDS011;38766;53.194;5.532;2023-02-03T01:33:40;18.35;;;3.15;;
51556;SDS011;38766;53.194;5.532;2023-02-03T01:36:10;11.10;;;2.95;;
51556;SDS011;38766;53.194;5.532;2023-02-03T01:38:36;18.80;;;3.45;;
51556;SDS011;38766;53.194;5.532;2023-02-03T01:41:03;11.43;;;3.20;;
51556;SDS011;38766;53.194;5.532;2023-02-03T01:43:37;14.25;;;3.45;;
51556;SDS011;38766;53.194;5.532;2023-02-03T01:46:24;17.17;;;3.53;;
51556;SDS011;38766;53.194;5.532;2023-02-03T01:49:06;12.32;;;2.85;;
51556;SDS011;38766;53.194;5.532;2023-02-03T01:51:32;24.38;;;3.92;;
51556;SDS011;38766;53.194;5.532;2023-02-03T01:53:59;19.75;;;3.83;;
51556;SDS011;38766;53.194;5.532;2023-02-03T01:56:26;19.20;;;3.38;;
51556;SDS011;38766;53.194;5.532;2023-02-03T01:58:54;17.95;;;3.53;;
51556;SDS011;38766;53.194;5.532;2023-02-03T02:01:20;13.43;;;3.22;;
51556;SDS011;38766;53.194;5.532;2023-02-03T02:03:49;12.85;;;2.80;;
51556;SDS011;38766;53.194;5.532;2023-02-03T02:06:18;16.42;;;3.20;;
51556;SDS011;38766;53.194;5.532;2023-02-03T02:08:45;17.65;;;3.45;;
51556;SDS011;38766;53.194;5.532;2023-02-03T02:11:13;16.35;;;4.00;;
51556;SDS011;38766;53.194;5.532;2023-02-03T02:13:39;16.85;;;4.38;;
51556;SDS011;38766;53.194;5.532;2023-02-03T02:21:49;19.20;;;3.55;;
51556;SDS011;38766;53.194;5.532;2023-02-03T02:24:47;17.42;;;3.38;;
51556;SDS011;38766;53.194;5.532;2023-02-03T02:27:43;10.35;;;2.92;;
51556;SDS011;38766;53.194;5.532;2023-02-03T02:30:35;19.45;;;3.70;;
51556;SDS011;38766;53.194;5.532;2023-02-03T02:41:26;14.65;;;3.20;;
51556;SDS011;38766;53.194;5.532;2023-02-03T02:44:09;14.73;;;3.50;;
51556;SDS011;38766;53.194;5.532;2023-02-03T02:46:40;19.85;;;3.85;;
51556;SDS011;38766;53.194;5.532;2023-02-03T02:51:57;15.88;;;3.10;;
51556;SDS011;38766;53.194;5.532;2023-02-03T02:54:27;20.20;;;3.10;;
51556;SDS011;38766;53.194;5.532;2023-02-03T02:56:55;15.55;;;3.55;;
51556;SDS011;38766;53.194;5.532;2023-02-03T02:59:27;18.50;;;4.07;;
51556;SDS011;38766;53.194;5.532;2023-02-03T03:01:53;10.75;;;2.80;;
51556;SDS011;38766;53.194;5.532;2023-02-03T03:04:20;15.60;;;3.70;;
51556;SDS011;38766;53.194;5.532;2023-02-03T03:06:59;20.33;;;3.65;;
51556;SDS011;38766;53.194;5.532;2023-02-03T03:09:53;13.20;;;4.07;;
51556;SDS011;38766;53.194;5.532;2023-02-03T03:12:31;12.95;;;3.80;;
51556;SDS011;38766;53.194;5.532;2023-02-03T03:15:01;13.23;;;2.75;;
51556;SDS011;38766;53.194;5.532;2023-02-03T03:17:31;12.38;;;3.03;;
51556;SDS011;38766;53.194;5.532;2023-02-03T03:20:02;13.75;;;2.83;;
51556;SDS011;38766;53.194;5.532;2023-02-03T03:22:34;18.13;;;3.63;;
51556;SDS011;38766;53.194;5.532;2023-02-03T03:25:07;9.35;;;3.05;;
51556;SDS011;38766;53.194;5.532;2023-02-03T03:27:38;17.45;;;3.28;;
51556;SDS011;38766;53.194;5.532;2023-02-03T03:30:14;22.58;;;3.25;;
51556;SDS011;38766;53.194;5.532;2023-02-03T03:32:44;9.02;;;2.90;;
51556;SDS011;38766;53.194;5.532;2023-02-03T03:35:10;14.30;;;2.70;;
51556;SDS011;38766;53.194;5.532;2023-02-03T03:37:43;18.88;;;2.88;;
51556;SDS011;38766;53.194;5.532;2023-02-03T03:40:25;15.02;;;2.65;;
51556;SDS011;38766;53.194;5.532;2023-02-03T03:42:55;13.40;;;3.15;;
51556;SDS011;38766;53.194;5.532;2023-02-03T03:48:08;15.45;;;3.83;;
51556;SDS011;38766;53.194;5.532;2023-02-03T03:50:45;17.20;;;3.00;;
51556;SDS011;38766;53.194;5.532;2023-02-03T03:53:15;12.60;;;2.78;;
51556;SDS011;38766;53.194;5.532;2023-02-03T03:55:42;13.75;;;2.80;;
51556;SDS011;38766;53.194;5.532;2023-02-03T03:58:14;13.40;;;3.03;;
51556;SDS011;38766;53.194;5.532;2023-02-03T04:00:45;11.20;;;3.47;;
51556;SDS011;38766;53.194;5.532;2023-02-03T04:03:16;19.80;;;4.03;;
51556;SDS011;38766;53.194;5.532;2023-02-03T04:05:44;15.13;;;3.15;;
51556;SDS011;38766;53.194;5.532;2023-02-03T04:08:10;8.90;;;2.70;;
51556;SDS011;38766;53.194;5.532;2023-02-03T04:10:39;14.32;;;3.42;;
51556;SDS011;38766;53.194;5.532;2023-02-03T04:13:07;8.05;;;2.90;;
51556;SDS011;38766;53.194;5.532;2023-02-03T04:15:33;13.27;;;3.35;;
51556;SDS011;38766;53.194;5.532;2023-02-03T04:17:59;14.68;;;3.53;;
51556;SDS011;38766;53.194;5.532;2023-02-03T04:20:28;13.88;;;2.95;;
51556;SDS011;38766;53.194;5.532;2023-02-03T04:22:55;21.20;;;3.85;;
51556;SDS011;38766;53.194;5.532;2023-02-03T04:25:21;12.48;;;3.15;;
51556;SDS011;38766;53.194;5.532;2023-02-03T04:27:47;13.93;;;3.25;;
51556;SDS011;38766;53.194;5.532;2023-02-03T04:30:13;16.45;;;3.42;;
51556;SDS011;38766;53.194;5.532;2023-02-03T04:32:39;23.15;;;3.78;;
51556;SDS011;38766;53.194;5.532;2023-02-03T04:35:05;11.95;;;3.58;;
51556;SDS011;38766;53.194;5.532;2023-02-03T04:37:32;16.20;;;2.88;;
51556;SDS011;38766;53.194;5.532;2023-02-03T04:39:58;16.48;;;3.08;;
51556;SDS011;38766;53.194;5.532;2023-02-03T04:42:24;16.73;;;3.08;;
51556;SDS011;38766;53.194;5.532;2023-02-03T04:44:50;10.93;;;3.05;;
51556;SDS011;38766;53.194;5.532;2023-02-03T04:47:16;21.92;;;4.18;;
51556;SDS011;38766;53.194;5.532;2023-02-03T04:49:43;16.98;;;3.22;;
51556;SDS011;38766;53.194;5.532;2023-02-03T04:52:09;18.52;;;4.05;;
51556;SDS011;38766;53.194;5.532;2023-02-03T04:54:35;18.17;;;4.03;;
51556;SDS011;38766;53.194;5.532;2023-02-03T04:57:01;12.48;;;4.00;;
51556;SDS011;38766;53.194;5.532;2023-02-03T04:59:27;16.27;;;3.50;;
51556;SDS011;38766;53.194;5.532;2023-02-03T05:01:52;18.13;;;4.00;;
51556;SDS011;38766;53.194;5.532;2023-02-03T05:04:18;21.23;;;3.83;;
51556;SDS011;38766;53.194;5.532;2023-02-03T05:06:44;17.33;;;3.28;;
51556;SDS011;38766;53.194;5.532;2023-02-03T05:09:10;19.55;;;4.43;;
51556;SDS011;38766;53.194;5.532;2023-02-03T05:11:35;14.75;;;3.42;;
51556;SDS011;38766;53.194;5.532;2023-02-03T05:14:01;19.33;;;4.10;;
51556;SDS011;38766;53.194;5.532;2023-02-03T05:16:27;17.88;;;3.60;;
51556;SDS011;38766;53.194;5.532;2023-02-03T05:18:52;19.60;;;3.60;;
51556;SDS011;38766;53.194;5.532;2023-02-03T05:21:18;18.90;;;4.10;;
51556;SDS011;38766;53.194;5.532;2023-02-03T05:23:44;18.02;;;5.07;;
51556;SDS011;38766;53.194;5.532;2023-02-03T05:26:09;13.52;;;3.70;;
51556;SDS011;38766;53.194;5.532;2023-02-03T05:28:35;21.60;;;4.32;;
51556;SDS011;38766;53.194;5.532;2023-02-03T05:31:01;16.20;;;3.88;;
51556;SDS011;38766;53.194;5.532;2023-02-03T05:33:27;19.33;;;4.38;;
51556;SDS011;38766;53.194;5.532;2023-02-03T05:35:53;20.17;;;4.07;;
51556;SDS011;38766;53.194;5.532;2023-02-03T05:38:19;19.33;;;4.50;;
51556;SDS011;38766;53.194;5.532;2023-02-03T05:40:48;23.42;;;4.60;;
51556;SDS011;38766;53.194;5.532;2023-02-03T05:43:20;22.63;;;4.95;;
51556;SDS011;38766;53.194;5.532;2023-02-03T05:45:46;23.00;;;5.75;;
51556;SDS011;38766;53.194;5.532;2023-02-03T05:48:12;18.42;;;4.82;;
51556;SDS011;38766;53.194;5.532;2023-02-03T05:50:37;22.67;;;4.63;;
51556;SDS011;38766;53.194;5.532;2023-02-03T05:53:04;19.35;;;4.90;;
51556;SDS011;38766;53.194;5.532;2023-02-03T05:55:30;23.08;;;4.38;;
51556;SDS011;38766;53.194;5.532;2023-02-03T05:57:57;30.50;;;5.18;;
51556;SDS011;38766;53.194;5.532;2023-02-03T06:00:26;16.73;;;4.18;;
51556;SDS011;38766;53.194;5.532;2023-02-03T06:02:53;28.40;;;5.13;;
51556;SDS011;38766;53.194;5.532;2023-02-03T06:05:24;21.35;;;5.43;;
51556;SDS011;38766;53.194;5.532;2023-02-03T06:07:50;24.05;;;5.50;;
51556;SDS011;38766;53.194;5.532;2023-02-03T06:10:16;22.60;;;5.07;;
51556;SDS011;38766;53.194;5.532;2023-02-03T06:12:42;20.77;;;4.45;;
51556;SDS011;38766;53.194;5.532;2023-02-03T06:15:08;24.50;;;6.13;;
51556;SDS011;38766;53.194;5.532;2023-02-03T06:17:35;23.92;;;5.95;;
51556;SDS011;38766;53.194;5.532;2023-02-03T06:20:05;22.13;;;4.80;;
51556;SDS011;38766;53.194;5.532;2023-02-03T06:22:32;25.08;;;5.10;;
51556;SDS011;38766;53.194;5.532;2023-02-03T06:24:59;31.33;;;6.03;;
51556;SDS011;38766;53.194;5.532;2023-02-03T06:27:24;21.70;;;4.65;;
51556;SDS011;38766;53.194;5.532;2023-02-03T06:29:50;25.98;;;5.45;;
51556;SDS011;38766;53.194;5.532;2023-02-03T06:32:16;22.67;;;4.55;;
51556;SDS011;38766;53.194;5.532;2023-02-03T06:34:41;26.27;;;5.03;;
51556;SDS011;38766;53.194;5.532;2023-02-03T06:37:07;23.08;;;5.80;;
51556;SDS011;38766;53.194;5.532;2023-02-03T06:39:32;20.90;;;4.75;;
51556;SDS011;38766;53.194;5.532;2023-02-03T06:41:58;17.13;;;4.65;;
51556;SDS011;38766;53.194;5.532;2023-02-03T06:44:24;26.98;;;4.97;;
51556;SDS011;38766;53.194;5.532;2023-02-03T06:46:50;29.08;;;6.15;;
51556;SDS011;38766;53.194;5.532;2023-02-03T06:49:16;33.17;;;6.05;;
51556;SDS011;38766;53.194;5.532;2023-02-03T06:51:43;21.05;;;4.95;;
51556;SDS011;38766;53.194;5.532;2023-02-03T06:54:09;27.20;;;5.25;;
51556;SDS011;38766;53.194;5.532;2023-02-03T06:56:35;24.63;;;5.05;;
51556;SDS011;38766;53.194;5.532;2023-02-03T06:59:01;23.23;;;5.30;;
51556;SDS011;38766;53.194;5.532;2023-02-03T07:01:27;24.08;;;6.05;;
51556;SDS011;38766;53.194;5.532;2023-02-03T07:03:54;27.35;;;5.18;;
51556;SDS011;38766;53.194;5.532;2023-02-03T07:06:26;26.17;;;5.63;;
51556;SDS011;38766;53.194;5.532;2023-02-03T07:08:55;28.80;;;6.03;;
51556;SDS011;38766;53.194;5.532;2023-02-03T07:11:21;28.23;;;6.10;;
51556;SDS011;38766;53.194;5.532;2023-02-03T07:13:47;26.55;;;5.75;;
51556;SDS011;38766;53.194;5.532;2023-02-03T07:16:13;22.33;;;4.72;;
51556;SDS011;38766;53.194;5.532;2023-02-03T07:18:39;29.38;;;5.43;;
51556;SDS011;38766;53.194;5.532;2023-02-03T07:21:05;26.40;;;5.90;;
51556;SDS011;38766;53.194;5.532;2023-02-03T07:23:31;29.30;;;5.63;;
51556;SDS011;38766;53.194;5.532;2023-02-03T07:26:01;19.27;;;4.57;;
51556;SDS011;38766;53.194;5.532;2023-02-03T07:28:29;19.60;;;4.80;;
51556;SDS011;38766;53.194;5.532;2023-02-03T07:30:55;26.40;;;5.35;;
51556;SDS011;38766;53.194;5.532;2023-02-03T07:33:21;25.73;;;5.88;;
51556;SDS011;38766;53.194;5.532;2023-02-03T07:35:53;28.05;;;5.78;;
51556;SDS011;38766;53.194;5.532;2023-02-03T07:38:19;27.00;;;6.45;;
51556;SDS011;38766;53.194;5.532;2023-02-03T07:40:45;22.45;;;4.95;;
51556;SDS011;38766;53.194;5.532;2023-02-03T07:43:11;25.75;;;5.47;;
51556;SDS011;38766;53.194;5.532;2023-02-03T07:45:37;34.10;;;5.78;;
51556;SDS011;38766;53.194;5.532;2023-02-03T07:48:02;29.30;;;6.10;;
51556;SDS011;38766;53.194;5.532;2023-02-03T07:50:28;22.63;;;6.03;;
51556;SDS011;38766;53.194;5.532;2023-02-03T07:52:54;27.83;;;5.75;;
51556;SDS011;38766;53.194;5.532;2023-02-03T07:55:20;27.52;;;6.35;;
51556;SDS011;38766;53.194;5.532;2023-02-03T07:57:46;37.30;;;7.30;;
51556;SDS011;38766;53.194;5.532;2023-02-03T08:00:12;30.80;;;5.90;;
51556;SDS011;38766;53.194;5.532;2023-02-03T08:02:42;28.58;;;5.45;;
51556;SDS011;38766;53.194;5.532;2023-02-03T08:05:08;29.10;;;6.22;;
51556;SDS011;38766;53.194;5.532;2023-02-03T08:07:34;30.77;;;6.13;;
51556;SDS011;38766;53.194;5.532;2023-02-03T08:10:00;36.03;;;6.45;;
51556;SDS011;38766;53.194;5.532;2023-02-03T08:12:26;35.55;;;6.50;;
51556;SDS011;38766;53.194;5.532;2023-02-03T08:14:52;30.15;;;6.72;;
51556;SDS011;38766;53.194;5.532;2023-02-03T08:17:17;29.45;;;5.80;;
51556;SDS011;38766;53.194;5.532;2023-02-03T08:19:43;34.83;;;6.95;;
51556;SDS011;38766;53.194;5.532;2023-02-03T08:22:09;32.20;;;6.22;;
51556;SDS011;38766;53.194;5.532;2023-02-03T08:24:40;33.25;;;7.40;;
51556;SDS011;38766;53.194;5.532;2023-02-03T08:27:10;27.23;;;6.22;;
51556;SDS011;38766;53.194;5.532;2023-02-03T08:32:04;34.22;;;6.82;;
51556;SDS011;38766;53.194;5.532;2023-02-03T08:34:34;27.63;;;6.80;;
51556;SDS011;38766;53.194;5.532;2023-02-03T08:36:59;38.40;;;7.63;;
51556;SDS011;38766;53.194;5.532;2023-02-03T08:39:25;30.55;;;7.07;;
51556;SDS011;38766;53.194;5.532;2023-02-03T08:41:54;27.13;;;5.60;;
51556;SDS011;38766;53.194;5.532;2023-02-03T08:44:19;30.45;;;7.07;;
51556;SDS011;38766;53.194;5.532;2023-02-03T08:46:51;37.00;;;7.28;;
51556;SDS011;38766;53.194;5.532;2023-02-03T08:49:24;40.28;;;7.75;;
51556;SDS011;38766;53.194;5.532;2023-02-03T08:51:53;33.55;;;6.07;;
51556;SDS011;38766;53.194;5.532;2023-02-03T08:54:22;33.67;;;7.60;;
51556;SDS011;38766;53.194;5.532;2023-02-03T08:56:51;39.15;;;7.28;;
51556;SDS011;38766;53.194;5.532;2023-02-03T08:59:17;42.42;;;6.70;;
51556;SDS011;38766;53.194;5.532;2023-02-03T09:01:43;27.33;;;6.65;;
51556;SDS011;38766;53.194;5.532;2023-02-03T09:04:14;29.58;;;6.45;;
51556;SDS011;38766;53.194;5.532;2023-02-03T09:06:44;24.58;;;5.70;;
51556;SDS011;38766;53.194;5.532;2023-02-03T09:09:12;28.08;;;5.28;;
51556;SDS011;38766;53.194;5.532;2023-02-03T09:11:39;22.95;;;5.43;;
51556;SDS011;38766;53.194;5.532;2023-02-03T09:14:06;22.30;;;4.80;;
51556;SDS011;38766;53.194;5.532;2023-02-03T09:16:32;24.25;;;6.00;;
51556;SDS011;38766;53.194;5.532;2023-02-03T09:18:58;31.52;;;5.82;;
51556;SDS011;38766;53.194;5.532;2023-02-03T09:21:23;35.95;;;11.18;;
51556;SDS011;38766;53.194;5.532;2023-02-03T09:23:49;29.38;;;6.00;;
51556;SDS011;38766;53.194;5.532;2023-02-03T09:26:15;38.05;;;7.13;;
51556;SDS011;38766;53.194;5.532;2023-02-03T09:28:41;28.23;;;5.40;;
51556;SDS011;38766;53.194;5.532;2023-02-03T09:31:08;37.10;;;6.28;;
51556;SDS011;38766;53.194;5.532;2023-02-03T09:33:35;27.77;;;5.85;;
51556;SDS011;38766;53.194;5.532;2023-02-03T09:36:01;28.30;;;6.18;;
51556;SDS011;38766;53.194;5.532;2023-02-03T09:38:27;28.75;;;5.43;;
51556;SDS011;38766;53.194;5.532;2023-02-03T09:40:54;28.23;;;5.03;;
51556;SDS011;38766;53.194;5.532;2023-02-03T09:43:52;27.90;;;6.45;;
51556;SDS011;38766;53.194;5.532;2023-02-03T09:46:24;31.48;;;6.10;;
51556;SDS011;38766;53.194;5.532;2023-02-03T09:51:57;28.38;;;6.03;;
51556;SDS011;38766;53.194;5.532;2023-02-03T09:54:33;33.22;;;6.57;;
51556;SDS011;38766;53.194;5.532;2023-02-03T09:57:12;35.22;;;6.60;;
51556;SDS011;38766;53.194;5.532;2023-02-03T09:59:50;29.98;;;5.53;;
51556;SDS011;38766;53.194;5.532;2023-02-03T10:13:06;38.38;;;6.50;;
51556;SDS011;38766;53.194;5.532;2023-02-03T10:18:44;37.72;;;6.28;;
51556;SDS011;38766;53.194;5.532;2023-02-03T10:21:25;36.53;;;6.97;;
51556;SDS011;38766;53.194;5.532;2023-02-03T10:23:55;37.55;;;8.15;;
51556;SDS011;38766;53.194;5.532;2023-02-03T10:26:25;32.58;;;6.32;;
51556;SDS011;38766;53.194;5.532;2023-02-03T10:28:53;40.92;;;7.38;;
51556;SDS011;38766;53.194;5.532;2023-02-03T10:31:21;32.97;;;6.18;;
51556;SDS011;38766;53.194;5.532;2023-02-03T10:33:58;37.35;;;6.75;;
51556;SDS011;38766;53.194;5.532;2023-02-03T10:36:36;34.92;;;6.90;;
51556;SDS011;38766;53.194;5.532;2023-02-03T10:41:48;28.85;;;6.63;;
51556;SDS011;38766;53.194;5.532;2023-02-03T10:44:14;31.35;;;6.80;;
51556;SDS011;38766;53.194;5.532;2023-02-03T10:46:40;41.72;;;7.65;;
51556;SDS011;38766;53.194;5.532;2023-02-03T10:49:09;34.42;;;7.30;;
51556;SDS011;38766;53.194;5.532;2023-02-03T10:51:48;36.67;;;6.95;;
51556;SDS011;38766;53.194;5.532;2023-02-03T10:54:30;43.88;;;7.82;;
51556;SDS011;38766;53.194;5.532;2023-02-03T10:57:03;30.65;;;7.07;;
51556;SDS011;38766;53.194;5.532;2023-02-03T10:59:40;39.13;;;7.63;;
51556;SDS011;38766;53.194;5.532;2023-02-03T11:02:26;35.55;;;7.18;;
51556;SDS011;38766;53.194;5.532;2023-02-03T11:05:39;30.08;;;5.72;;
51556;SDS011;38766;53.194;5.532;2023-02-03T11:07:39;37.22;;;6.93;;
51556;SDS011;38766;53.194;5.532;2023-02-03T11:13:17;44.20;;;8.80;;
51556;SDS011;38766;53.194;5.532;2023-02-03T11:18:25;35.08;;;6.47;;
51556;SDS011;38766;53.194;5.532;2023-02-03T11:21:05;34.65;;;6.43;;
51556;SDS011;38766;53.194;5.532;2023-02-03T11:23:32;42.05;;;7.53;;
51556;SDS011;38766;53.194;5.532;2023-02-03T11:25:57;38.40;;;7.93;;
51556;SDS011;38766;53.194;5.532;2023-02-03T11:28:24;41.97;;;7.72;;
51556;SDS011;38766;53.194;5.532;2023-02-03T11:30:55;41.20;;;7.25;;
51556;SDS011;38766;53.194;5.532;2023-02-03T11:33:23;35.28;;;7.70;;
51556;SDS011;38766;53.194;5.532;2023-02-03T11:35:57;43.40;;;8.15;;
51556;SDS011;38766;53.194;5.532;2023-02-03T11:38:28;36.08;;;7.05;;
51556;SDS011;38766;53.194;5.532;2023-02-03T11:40:58;43.60;;;6.80;;
51556;SDS011;38766;53.194;5.532;2023-02-03T11:43:27;42.00;;;6.63;;
51556;SDS011;38766;53.194;5.532;2023-02-03T11:46:00;34.33;;;8.82;;
51556;SDS011;38766;53.194;5.532;2023-02-03T11:56:38;37.53;;;7.55;;
51556;SDS011;38766;53.194;5.532;2023-02-03T12:14:16;48.78;;;8.82;;
51556;SDS011;38766;53.194;5.532;2023-02-03T12:17:11;46.95;;;8.98;;
51556;SDS011;38766;53.194;5.532;2023-02-03T12:25:28;45.33;;;8.75;;
51556;SDS011;38766;53.194;5.532;2023-02-03T12:28:16;52.88;;;9.40;;
51556;SDS011;38766;53.194;5.532;2023-02-03T12:36:36;46.83;;;9.27;;
51556;SDS011;38766;53.194;5.532;2023-02-03T12:39:14;39.53;;;8.70;;
51556;SDS011;38766;53.194;5.532;2023-02-03T12:41:47;49.63;;;9.25;;
51556;SDS011;38766;53.194;5.532;2023-02-03T12:44:42;54.35;;;9.23;;
51556;SDS011;38766;53.194;5.532;2023-02-03T12:47:15;47.72;;;7.45;;
51556;SDS011;38766;53.194;5.532;2023-02-03T12:55:14;45.83;;;8.02;;
51556;SDS011;38766;53.194;5.532;2023-02-03T13:00:39;40.42;;;8.20;;
51556;SDS011;38766;53.194;5.532;2023-02-03T13:03:26;40.90;;;8.13;;
51556;SDS011;38766;53.194;5.532;2023-02-03T13:19:55;44.30;;;9.13;;
51556;SDS011;38766;53.194;5.532;2023-02-03T13:22:24;38.28;;;7.15;;
51556;SDS011;38766;53.194;5.532;2023-02-03T13:25:16;40.38;;;8.50;;
51556;SDS011;38766;53.194;5.532;2023-02-03T13:27:46;43.63;;;9.00;;
51556;SDS011;38766;53.194;5.532;2023-02-03T13:38:23;36.97;;;6.90;;
51556;SDS011;38766;53.194;5.532;2023-02-03T13:43:43;35.38;;;7.50;;
51556;SDS011;38766;53.194;5.532;2023-02-03T13:46:23;37.53;;;7.43;;
51556;SDS011;38766;53.194;5.532;2023-02-03T13:48:55;36.85;;;8.38;;
51556;SDS011;38766;53.194;5.532;2023-02-03T13:51:29;41.45;;;8.65;;
51556;SDS011;38766;53.194;5.532;2023-02-03T13:54:11;36.83;;;7.32;;
51556;SDS011;38766;53.194;5.532;2023-02-03T13:56:40;33.03;;;7.63;;
51556;SDS011;38766;53.194;5.532;2023-02-03T14:01:41;29.48;;;6.40;;
51556;SDS011;38766;53.194;5.532;2023-02-03T14:04:08;29.98;;;6.28;;
51556;SDS011;38766;53.194;5.532;2023-02-03T14:06:54;36.05;;;7.18;;
51556;SDS011;38766;53.194;5.532;2023-02-03T14:12:18;39.75;;;6.88;;
51556;SDS011;38766;53.194;5.532;2023-02-03T14:15:02;37.72;;;7.88;;
51556;SDS011;38766;53.194;5.532;2023-02-03T14:22:56;41.17;;;7.78;;
51556;SDS011;38766;53.194;5.532;2023-02-03T14:25:28;42.78;;;8.73;;
51556;SDS011;38766;53.194;5.532;2023-02-03T14:28:06;50.15;;;7.82;;
51556;SDS011;38766;53.194;5.532;2023-02-03T14:30:59;35.50;;;8.35;;
51556;SDS011;38766;53.194;5.532;2023-02-03T14:36:36;40.22;;;9.23;;
51556;SDS011;38766;53.194;5.532;2023-02-03T14:39:18;36.30;;;6.97;;
51556;SDS011;38766;53.194;5.532;2023-02-03T14:42:01;40.22;;;8.40;;
51556;SDS011;38766;53.194;5.532;2023-02-03T14:44:55;50.85;;;8.00;;
51556;SDS011;38766;53.194;5.532;2023-02-03T14:56:38;44.15;;;10.10;;
51556;SDS011;38766;53.194;5.532;2023-02-03T14:59:19;41.42;;;8.57;;
51556;SDS011;38766;53.194;5.532;2023-02-03T15:06:48;40.22;;;8.07;;
51556;SDS011;38766;53.194;5.532;2023-02-03T15:09:37;49.58;;;9.38;;
51556;SDS011;38766;53.194;5.532;2023-02-03T15:12:15;39.33;;;8.77;;
51556;SDS011;38766;53.194;5.532;2023-02-03T15:14:46;53.92;;;9.02;;
51556;SDS011;38766;53.194;5.532;2023-02-03T15:17:27;49.47;;;8.40;;
51556;SDS011;38766;53.194;5.532;2023-02-03T15:19:54;45.70;;;7.80;;
51556;SDS011;38766;53.194;5.532;2023-02-03T15:22:24;37.33;;;7.43;;
51556;SDS011;38766;53.194;5.532;2023-02-03T15:24:56;46.53;;;8.45;;
51556;SDS011;38766;53.194;5.532;2023-02-03T15:27:28;42.72;;;8.70;;
51556;SDS011;38766;53.194;5.532;2023-02-03T15:32:46;46.95;;;8.25;;
51556;SDS011;38766;53.194;5.532;2023-02-03T15:35:21;45.70;;;9.32;;
51556;SDS011;38766;53.194;5.532;2023-02-03T15:37:50;43.72;;;8.30;;
51556;SDS011;38766;53.194;5.532;2023-02-03T15:40:22;45.08;;;9.50;;
51556;SDS011;38766;53.194;5.532;2023-02-03T15:42:56;45.05;;;8.57;;
51556;SDS011;38766;53.194;5.532;2023-02-03T15:45:31;41.28;;;7.88;;
51556;SDS011;38766;53.194;5.532;2023-02-03T15:50:55;34.55;;;8.30;;
51556;SDS011;38766;53.194;5.532;2023-02-03T15:56:31;44.92;;;8.60;;
51556;SDS011;38766;53.194;5.532;2023-02-03T15:59:00;48.25;;;8.88;;
51556;SDS011;38766;53.194;5.532;2023-02-03T16:01:26;39.50;;;7.95;;
51556;SDS011;38766;53.194;5.532;2023-02-03T16:03:52;45.58;;;8.88;;
51556;SDS011;38766;53.194;5.532;2023-02-03T16:06:29;46.45;;;8.93;;
51556;SDS011;38766;53.194;5.532;2023-02-03T16:09:03;45.67;;;8.32;;
51556;SDS011;38766;53.194;5.532;2023-02-03T16:11:35;44.63;;;9.23;;
51556;SDS011;38766;53.194;5.532;2023-02-03T16:14:06;44.25;;;8.05;;
51556;SDS011;38766;53.194;5.532;2023-02-03T16:16:35;43.10;;;6.80;;
51556;SDS011;38766;53.194;5.532;2023-02-03T16:19:15;42.45;;;9.50;;
51556;SDS011;38766;53.194;5.532;2023-02-03T16:24:31;45.88;;;8.90;;
51556;SDS011;38766;53.194;5.532;2023-02-03T16:29:49;46.30;;;9.00;;
51556;SDS011;38766;53.194;5.532;2023-02-03T16:35:55;46.67;;;8.13;;
51556;SDS011;38766;53.194;5.532;2023-02-03T16:38:47;47.45;;;9.00;;
51556;SDS011;38766;53.194;5.532;2023-02-03T16:41:32;50.97;;;9.07;;
51556;SDS011;38766;53.194;5.532;2023-02-03T16:44:16;48.97;;;8.57;;
51556;SDS011;38766;53.194;5.532;2023-02-03T16:47:02;47.22;;;9.20;;
51556;SDS011;38766;53.194;5.532;2023-02-03T16:49:46;61.50;;;9.20;;
51556;SDS011;38766;53.194;5.532;2023-02-03T16:52:30;43.78;;;7.85;;
51556;SDS011;38766;53.194;5.532;2023-02-03T16:54:56;52.33;;;10.07;;
51556;SDS011;38766;53.194;5.532;2023-02-03T16:57:22;50.45;;;8.38;;
51556;SDS011;38766;53.194;5.532;2023-02-03T16:59:48;44.88;;;8.98;;
51556;SDS011;38766;53.194;5.532;2023-02-03T17:02:14;50.33;;;8.52;;
51556;SDS011;38766;53.194;5.532;2023-02-03T17:04:40;51.70;;;8.32;;
51556;SDS011;38766;53.194;5.532;2023-02-03T17:07:06;40.85;;;8.30;;
51556;SDS011;38766;53.194;5.532;2023-02-03T17:09:31;40.72;;;7.88;;
51556;SDS011;38766;53.194;5.532;2023-02-03T17:12:00;46.25;;;8.48;;
51556;SDS011;38766;53.194;5.532;2023-02-03T17:14:29;47.53;;;8.38;;
51556;SDS011;38766;53.194;5.532;2023-02-03T17:16:55;52.67;;;8.65;;
51556;SDS011;38766;53.194;5.532;2023-02-03T17:19:20;41.58;;;9.25;;
51556;SDS011;38766;53.194;5.532;2023-02-03T17:21:46;57.47;;;8.38;;
51556;SDS011;38766;53.194;5.532;2023-02-03T17:24:12;43.03;;;8.85;;
51556;SDS011;38766;53.194;5.532;2023-02-03T17:26:38;60.85;;;9.48;;
51556;SDS011;38766;53.194;5.532;2023-02-03T17:29:04;39.22;;;8.23;;
51556;SDS011;38766;53.194;5.532;2023-02-03T17:31:30;44.90;;;9.32;;
51556;SDS011;38766;53.194;5.532;2023-02-03T17:33:56;41.60;;;8.65;;